LIBQ  Monte Scuro Airport

Add Bookmark

Italy

Status
Operational
Latitude Longitude
39° 19' 12" N 16° 22' 47" E
39.320000 16.380000
Local (DST + 2) UTC (GMT + 1)
Dec 19, 2014 04:48 Dec 19, 2014 15:48
Sunrise-Sunset Local UTC
Begin Civil Twilight 06:38 05:38
Sunrise 07:08 06:08
Sunset 04:35 15:35
End Civil Twilight 05:05 16:05

Current Weather

METAR Observed VFR
LIBQ 191455Z 30008KT 9999 SCT005 03/M00 Q1021 Fri, Dec 19, 2014 @ 14:55 UTC
(53 Minutes ago)
Visual Flight Rules
Wind Visibility Clouds Conditions
300° at 8 knots (15 kph) 10 km or more
  • Scattered at 500' AGL
  • No significant weather
Temperatures Readings Precipitation
Current Temp 3°C (37°F)
Dewpoint 0°C (32°F)
Humidity 81%
Altimeter 30.15"Hg
Sea Level Pressure 1021mb
Field Elevation 5643.04'
None Recorded

Additional weather within a 92.6km radius of LIBQ

Map ICAO Location
LICA 47.6km S (195°)
LIBC 70.2km E (121°)

24 Hour Weather History

Loading
-

24 Hour Weather Graphs

Loading
-

CheckWX.com is intended as a tool to help pilots better visualize weather data. It is not intended as a substitute for an official weather briefing obtained from a Flight Service Station. CheckWX.com does not meet the FAA requirements for an official pre-flight weather briefing. Therefore, it's important that pilots still call and obtain an official FSS pre-flight weather briefing.